Главная страница
METAR-TAF:

METAR-TAF

Аэропорты :

Конакри, Гвинея

широта: 09-34N, долгота: 013-37W, высота над уровнем моря: 26 м

Текущие метеонаблюдения

Эта сводка был подготовлена 47 минут назад, в 07:00 UTC
Штиль
Температура 22°C
Влажность 100%
Давление 1010 hPa
Видимость: 3000 м
дымка

METAR: GUCY 240700Z 00000KT 3000 BR NSC 22/22 Q1010 NOSIG

Время: 07:47 (07:47 UTC)

Прогноз

Эта сводка был подготовлена 2 часа и 47 минут назад, в 05:00 UTC
Прогноз действительный с 24-го 06 UTC до 25-го 12 UTC
Ветер 6 Узел от западно-северо-западный
Видимость: 5000 м
мгла
временами
между VR и B0 UTC
Видимость: 2000 м
небольшая облачность на высоте 1500 фута
дымка
изменения
С 24-го 14 UTC до 24-го 18 UTC
Ветер 4 Узел от юго-западный
Видимость: 4000 м
мгла

TAF: GUCY 240500Z 2406/2512 30006KT 5000 HZ NSC TEMPO VRB02KT 2000 BR FEW015 BECMG 2414/2418 22004KT 4000 HZ NSC

Метеонаблюдения и прогнозы для более 4000 аэропортов (сводки METAR и TAF).

Имеющиеся станции представлены на карте желтыми и красными точками.

Чтобы увидеть название станции, наведите на нее мышь.

Затем щелкните, чтобы увидеть метеонаблюдения и метеопрогнозы.

Управление картой: чтобы увеличить масштаб, щелкните зеленые кнопки с черным крестиком; чтобы уменьшить масштаб, щелкните зеленую кнопку с тире; для просмотра соседних карт щелкайте зеленые стрелки.


METAR-TAF: